Time;durP1;ratioP1;P1;durP2;ratioP2;P2;SDS_P1;SDS_P2;PMS_P1;PMS_P2;Temp;Humidity;BMP_temperature;BMP_pressure;BME280_temperature;BME280_humidity;BME280_pressure;Samples;Min_cycle;Max_cycle;Signal;HPM_P1;HPM_P2
2022/10/22 00:00:47;;;;;;;3.25;1.85;;;15.50;99.90;;;;;;5033892;28;20216;-79
2022/10/22 00:03:15;;;;;;;4.43;2.20;;;15.50;99.90;;;;;;5016572;28;20203;-79
2022/10/22 00:05:43;;;;;;;3.63;2.10;;;15.40;99.90;;;;;;5012884;28;20196;-79
2022/10/22 00:08:11;;;;;;;3.75;2.20;;;15.40;99.90;;;;;;5017420;28;20200;-79
2022/10/22 00:10:39;;;;;;;5.35;2.50;;;15.40;99.90;;;;;;5017776;28;20219;-79
2022/10/22 00:13:06;;;;;;;4.80;2.22;;;15.50;99.90;;;;;;5029664;28;20218;-79
2022/10/22 00:15:34;;;;;;;4.25;2.20;;;15.40;99.90;;;;;;5023700;28;20210;-79
2022/10/22 00:18:04;;;;;;;3.65;2.10;;;15.50;99.90;;;;;;5019518;28;20199;-79
2022/10/22 00:20:32;;;;;;;3.85;2.15;;;15.40;99.90;;;;;;5015021;28;20212;-79
2022/10/22 00:23:00;;;;;;;5.55;2.28;;;15.40;99.90;;;;;;5015327;28;20208;-79
2022/10/22 00:25:28;;;;;;;3.40;2.53;;;15.40;99.90;;;;;;5016155;28;20200;-79
2022/10/22 00:27:55;;;;;;;3.15;2.22;;;15.40;99.90;;;;;;5017350;28;20195;-79
2022/10/22 00:30:23;;;;;;;7.90;2.40;;;15.40;99.90;;;;;;5014844;28;20231;-79
2022/10/22 00:32:50;;;;;;;3.17;2.28;;;15.40;99.90;;;;;;5015858;28;20199;-79
2022/10/22 00:35:18;;;;;;;5.90;3.03;;;15.40;99.90;;;;;;5016867;28;20200;-79
2022/10/22 00:37:45;;;;;;;4.43;2.55;;;15.40;99.90;;;;;;5033855;28;20211;-79
2022/10/22 00:40:14;;;;;;;6.40;2.45;;;15.40;99.90;;;;;;5006035;28;20215;-79
2022/10/22 00:42:42;;;;;;;4.32;2.80;;;15.40;99.90;;;;;;5011717;28;20207;-79
2022/10/22 00:45:21;;;;;;;4.68;3.05;;;15.40;99.90;;;;;;5032236;28;20203;-79
2022/10/22 00:47:56;;;;;;;6.03;2.72;;;15.40;99.90;;;;;;5016581;28;20200;-79
2022/10/22 00:50:28;;;;;;;5.78;2.45;;;15.40;99.90;;;;;;5014960;28;20207;-79
2022/10/22 00:52:57;;;;;;;4.45;2.63;;;15.40;99.90;;;;;;5015891;28;20214;-79
2022/10/22 00:55:27;;;;;;;5.50;2.75;;;15.40;99.90;;;;;;5015574;28;20211;-79
2022/10/22 00:57:57;;;;;;;7.13;2.92;;;15.40;99.90;;;;;;5006789;28;20211;-79
2022/10/22 01:00:25;;;;;;;4.95;2.85;;;15.40;99.90;;;;;;5013662;28;20315;-79
2022/10/22 01:02:55;;;;;;;4.25;2.70;;;15.40;99.90;;;;;;5013822;28;20203;-79
2022/10/22 01:05:23;;;;;;;4.53;2.78;;;15.40;99.90;;;;;;5014793;28;20207;-79
2022/10/22 01:07:53;;;;;;;4.38;2.65;;;15.40;99.90;;;;;;5030163;28;20199;-79
2022/10/22 01:10:44;;;;;;;3.40;3.10;;;15.40;99.90;;;;;;5016410;28;20546;-79
2022/10/22 01:13:23;;;;;;;5.70;3.15;;;15.40;99.90;;;;;;5016908;28;20646;-79
2022/10/22 01:15:59;;;;;;;4.45;3.20;;;15.40;99.90;;;;;;5016756;28;20214;-79
2022/10/22 01:18:35;;;;;;;7.25;2.45;;;15.40;99.90;;;;;;5017146;28;20199;-79
2022/10/22 01:21:14;;;;;;;5.95;3.35;;;15.30;99.90;;;;;;5015480;28;20219;-79
2022/10/22 01:24:06;;;;;;;4.28;2.83;;;15.30;99.90;;;;;;5015490;28;20210;-79
2022/10/22 01:26:43;;;;;;;5.47;3.17;;;15.30;99.90;;;;;;5009718;28;20203;-79
2022/10/22 01:29:15;;;;;;;6.50;2.85;;;15.40;99.90;;;;;;5017707;28;20191;-79
2022/10/22 01:32:11;;;;;;;6.20;3.10;;;15.40;99.90;;;;;;5014604;28;20192;-79
2022/10/22 01:34:42;;;;;;;6.90;2.83;;;15.40;99.90;;;;;;5013066;28;20688;-79
2022/10/22 01:37:12;;;;;;;4.07;3.10;;;15.40;99.90;;;;;;5010383;28;20211;-79
2022/10/22 01:39:42;;;;;;;5.78;2.90;;;15.40;99.90;;;;;;5016723;28;20215;-79
2022/10/22 01:42:12;;;;;;;13.85;3.33;;;15.40;99.90;;;;;;5025893;28;20219;-79
2022/10/22 01:44:41;;;;;;;3.92;2.67;;;15.40;99.90;;;;;;5030875;28;20211;-79
2022/10/22 01:47:17;;;;;;;5.28;3.00;;;15.30;99.90;;;;;;5014126;28;20227;-79
2022/10/22 01:50:13;;;;;;;5.43;3.55;;;15.40;99.90;;;;;;5013507;28;20223;-79
2022/10/22 01:53:19;;;;;;;4.45;2.53;;;15.40;99.90;;;;;;5014224;28;20207;-79
2022/10/22 01:56:03;;;;;;;5.38;3.30;;;15.40;99.90;;;;;;4983959;28;20816;-79
2022/10/22 01:58:39;;;;;;;4.28;2.88;;;15.30;99.90;;;;;;5013147;28;20654;-79
2022/10/22 02:01:17;;;;;;;3.72;2.53;;;15.40;99.90;;;;;;5028658;28;20581;-79
2022/10/22 02:03:51;;;;;;;6.38;3.13;;;15.40;99.90;;;;;;5025933;28;20207;-79
2022/10/22 02:06:22;;;;;;;6.10;2.85;;;15.40;99.90;;;;;;5010853;28;20208;-79
2022/10/22 02:08:51;;;;;;;5.78;3.13;;;15.40;99.90;;;;;;5015296;28;20202;-79
2022/10/22 02:11:18;;;;;;;5.80;3.20;;;15.40;99.90;;;;;;5017507;28;20248;-79
2022/10/22 02:13:49;;;;;;;8.15;3.38;;;15.40;99.90;;;;;;5008458;28;20200;-79
2022/10/22 02:16:22;;;;;;;5.70;3.50;;;15.40;99.90;;;;;;5008197;28;20202;-79
2022/10/22 02:18:54;;;;;;;7.03;3.65;;;15.40;99.90;;;;;;5003275;28;20203;-79
2022/10/22 02:21:22;;;;;;;5.88;3.30;;;15.30;99.90;;;;;;5011534;28;20195;-79
2022/10/22 02:23:49;;;;;;;6.78;3.08;;;15.40;99.90;;;;;;5014550;28;20203;-79
2022/10/22 02:26:22;;;;;;;6.43;3.28;;;15.40;99.90;;;;;;5006989;28;20199;-79
2022/10/22 02:28:58;;;;;;;6.20;3.65;;;15.30;99.90;;;;;;5013211;28;20208;-79
2022/10/22 02:31:32;;;;;;;6.45;3.70;;;15.30;99.90;;;;;;5012630;28;20223;-79
2022/10/22 02:34:06;;;;;;;6.38;3.90;;;15.30;99.90;;;;;;5012808;28;20206;-79
2022/10/22 02:36:34;;;;;;;5.03;3.38;;;15.30;99.90;;;;;;5015448;28;20210;-79
2022/10/22 02:39:03;;;;;;;4.78;3.30;;;15.30;99.90;;;;;;5016441;28;20573;-79
2022/10/22 02:41:31;;;;;;;4.13;3.40;;;15.40;99.90;;;;;;5012749;28;20289;-79
2022/10/22 02:43:58;;;;;;;4.25;3.00;;;15.30;99.90;;;;;;5014300;28;20204;-79
2022/10/22 02:46:26;;;;;;;5.32;3.45;;;15.40;99.90;;;;;;5014412;28;20207;-79
2022/10/22 02:48:54;;;;;;;5.13;2.90;;;15.30;99.90;;;;;;5015680;28;20192;-79
2022/10/22 02:51:22;;;;;;;6.57;3.45;;;15.30;99.90;;;;;;5011989;28;20214;-78
2022/10/22 02:53:49;;;;;;;6.28;3.05;;;15.30;99.90;;;;;;5034508;28;20295;-79
2022/10/22 02:56:17;;;;;;;5.75;3.35;;;15.20;99.90;;;;;;5017317;28;20195;-79
2022/10/22 02:58:44;;;;;;;4.80;3.13;;;15.20;99.90;;;;;;5010275;28;20199;-79
2022/10/22 03:01:12;;;;;;;4.35;2.97;;;15.30;99.90;;;;;;5029590;28;20265;-79
2022/10/22 03:03:39;;;;;;;4.57;3.20;;;15.20;99.90;;;;;;5033865;28;20579;-79
2022/10/22 03:06:08;;;;;;;6.25;3.67;;;15.30;99.90;;;;;;5012009;28;20199;-79
2022/10/22 03:08:36;;;;;;;4.18;2.92;;;15.30;99.90;;;;;;5018322;28;20188;-79
2022/10/22 03:11:03;;;;;;;6.72;3.20;;;15.30;99.90;;;;;;5058082;22;20221;-75
2022/10/22 03:13:31;;;;;;;8.23;3.50;;;15.30;99.90;;;;;;5054728;28;20197;-75
2022/10/22 03:15:58;;;;;;;4.82;3.40;;;15.30;99.90;;;;;;5056772;28;20736;-75
2022/10/22 03:18:25;;;;;;;8.40;4.18;;;15.30;99.90;;;;;;5049861;28;20207;-75
2022/10/22 03:21:02;;;;;;;4.53;3.28;;;15.30;99.90;;;;;;5065881;28;20218;-75
2022/10/22 03:23:32;;;;;;;5.25;3.45;;;15.40;99.90;;;;;;5049081;28;20194;-75
2022/10/22 03:26:00;;;;;;;5.93;2.95;;;15.40;99.90;;;;;;5062650;28;20205;-75
2022/10/22 03:28:27;;;;;;;5.82;3.15;;;15.40;99.90;;;;;;5063653;28;20221;-75
2022/10/22 03:30:54;;;;;;;7.70;3.10;;;15.30;99.90;;;;;;5055365;28;20218;-75
2022/10/22 03:33:22;;;;;;;5.15;3.20;;;15.40;99.90;;;;;;5053296;28;20190;-75
2022/10/22 03:35:49;;;;;;;5.57;3.60;;;15.40;99.90;;;;;;5075073;28;20212;-75
2022/10/22 03:38:17;;;;;;;8.30;3.35;;;15.30;99.90;;;;;;5058680;28;20545;-75
2022/10/22 03:40:46;;;;;;;6.60;3.10;;;15.40;99.90;;;;;;5051216;28;20210;-75
2022/10/22 03:43:14;;;;;;;3.83;3.42;;;15.40;99.90;;;;;;5057490;28;20198;-75
2022/10/22 03:45:41;;;;;;;5.88;2.90;;;15.40;99.90;;;;;;5071993;28;20202;-78
2022/10/22 03:48:09;;;;;;;3.65;3.22;;;15.40;99.90;;;;;;5059825;28;20205;-75
2022/10/22 03:50:36;;;;;;;5.28;3.33;;;15.40;99.90;;;;;;5048242;28;20240;-75
2022/10/22 03:53:05;;;;;;;6.00;2.95;;;15.40;99.90;;;;;;5056529;28;20205;-74
2022/10/22 03:55:33;;;;;;;5.68;3.20;;;15.40;99.90;;;;;;5053856;28;20198;-74
2022/10/22 03:58:02;;;;;;;6.90;3.90;;;15.40;99.90;;;;;;5055284;28;20187;-74
2022/10/22 04:00:29;;;;;;;4.88;3.30;;;15.30;99.90;;;;;;5047334;28;20226;-75
2022/10/22 04:02:57;;;;;;;4.78;3.45;;;15.30;99.90;;;;;;5051642;28;20217;-75
2022/10/22 04:05:24;;;;;;;3.50;3.17;;;15.30;99.90;;;;;;5060099;28;20198;-75
2022/10/22 04:07:52;;;;;;;5.68;3.45;;;15.30;99.90;;;;;;5054205;28;20668;-75
2022/10/22 04:10:19;;;;;;;4.28;3.45;;;15.30;99.90;;;;;;5062203;28;20229;-75
2022/10/22 04:12:48;;;;;;;6.20;3.47;;;15.30;99.90;;;;;;5057046;28;20701;-75
2022/10/22 04:15:17;;;;;;;7.13;3.53;;;15.20;99.90;;;;;;5056762;28;20198;-75
2022/10/22 04:17:44;;;;;;;7.30;3.80;;;15.20;99.90;;;;;;5053933;28;20191;-75
2022/10/22 04:20:12;;;;;;;5.35;3.17;;;15.20;99.90;;;;;;5070104;28;20229;-75
2022/10/22 04:22:39;;;;;;;6.72;4.25;;;15.20;99.90;;;;;;5049816;28;20182;-75
2022/10/22 04:25:07;;;;;;;7.55;3.83;;;15.20;99.90;;;;;;5056352;28;20671;-75
2022/10/22 04:27:34;;;;;;;8.48;3.83;;;15.10;99.90;;;;;;5069267;28;20203;-75
2022/10/22 04:30:02;;;;;;;7.07;3.80;;;15.10;99.90;;;;;;5058534;28;20217;-75
2022/10/22 04:32:31;;;;;;;6.00;3.95;;;15.10;99.90;;;;;;5051763;28;20230;-75
2022/10/22 04:34:58;;;;;;;6.53;3.75;;;15.10;99.90;;;;;;5050499;28;20665;-75
2022/10/22 04:37:26;;;;;;;5.35;3.58;;;15.10;99.90;;;;;;5052495;28;20206;-75
2022/10/22 04:39:53;;;;;;;7.72;3.45;;;15.10;99.90;;;;;;5053503;28;20209;-74
2022/10/22 04:42:21;;;;;;;6.20;3.90;;;15.20;99.90;;;;;;5047809;28;20663;-75
2022/10/22 04:44:48;;;;;;;7.10;3.67;;;15.10;99.90;;;;;;5056362;28;20660;-75
2022/10/22 04:47:15;;;;;;;5.32;3.95;;;15.10;99.90;;;;;;5064686;28;20214;-75
2022/10/22 04:49:44;;;;;;;5.43;4.22;;;15.10;99.90;;;;;;5056486;28;20210;-75
2022/10/22 04:52:12;;;;;;;6.60;4.25;;;15.20;99.90;;;;;;5062723;28;20218;-74
2022/10/22 04:54:39;;;;;;;5.07;3.83;;;15.10;99.90;;;;;;5054635;28;20213;-74
2022/10/22 04:57:07;;;;;;;6.05;3.95;;;15.10;99.90;;;;;;5052010;28;20562;-74
2022/10/22 04:59:34;;;;;;;7.50;4.20;;;15.10;99.90;;;;;;5052206;28;20202;-74
2022/10/22 05:02:02;;;;;;;7.88;4.25;;;15.10;99.90;;;;;;5068477;28;20198;-75
2022/10/22 05:04:29;;;;;;;6.13;4.18;;;15.10;99.90;;;;;;5050939;28;20195;-75
2022/10/22 05:06:58;;;;;;;5.95;4.53;;;15.10;99.90;;;;;;5053883;28;20608;-74
2022/10/22 05:09:25;;;;;;;8.50;4.30;;;15.10;99.90;;;;;;5053252;28;20201;-75
2022/10/22 05:11:53;;;;;;;7.30;4.07;;;15.20;99.90;;;;;;5049654;28;20226;-75
2022/10/22 05:14:23;;;;;;;6.53;4.25;;;15.10;99.90;;;;;;5068438;28;20206;-75
2022/10/22 05:16:51;;;;;;;4.53;4.07;;;15.10;99.90;;;;;;5055066;28;20199;-75
2022/10/22 05:19:22;;;;;;;7.65;4.57;;;15.20;99.90;;;;;;5051219;28;20195;-75
2022/10/22 05:21:50;;;;;;;8.00;4.28;;;15.20;99.90;;;;;;5052584;28;20217;-75
2022/10/22 05:24:19;;;;;;;5.95;4.20;;;15.10;99.90;;;;;;5054030;28;20194;-75
2022/10/22 05:26:48;;;;;;;6.60;4.25;;;15.20;99.90;;;;;;5049875;28;20206;-75
2022/10/22 05:29:15;;;;;;;9.20;4.22;;;15.10;99.90;;;;;;5046705;28;20201;-75
2022/10/22 05:31:43;;;;;;;6.68;4.15;;;15.10;99.90;;;;;;5053034;28;20214;-75
2022/10/22 05:34:10;;;;;;;5.45;3.97;;;15.20;99.90;;;;;;5058607;28;20191;-75
2022/10/22 05:36:38;;;;;;;5.63;3.95;;;15.10;99.90;;;;;;5050698;28;20211;-75
2022/10/22 05:39:06;;;;;;;5.97;3.85;;;15.10;99.90;;;;;;5051249;28;20209;-75
2022/10/22 05:41:35;;;;;;;7.97;4.30;;;15.10;99.90;;;;;;5047363;28;20214;-75
2022/10/22 05:44:03;;;;;;;5.75;4.40;;;15.10;99.90;;;;;;5053881;28;20205;-75
2022/10/22 05:46:34;;;;;;;6.88;4.30;;;15.10;99.90;;;;;;5053568;28;20194;-75
2022/10/22 05:49:04;;;;;;;8.38;4.43;;;15.10;99.90;;;;;;5046261;28;20574;-75
2022/10/22 05:51:34;;;;;;;6.38;4.13;;;15.10;99.90;;;;;;5063188;28;20739;-75
2022/10/22 05:54:03;;;;;;;8.02;4.47;;;15.10;99.90;;;;;;5052860;28;21175;-75
2022/10/22 05:56:32;;;;;;;7.95;4.40;;;15.10;99.90;;;;;;5053693;28;20202;-75
2022/10/22 05:59:01;;;;;;;6.78;4.30;;;15.20;99.90;;;;;;5072740;28;20205;-75
2022/10/22 06:01:31;;;;;;;4.70;3.88;;;15.10;99.90;;;;;;5047344;28;20217;-75
2022/10/22 06:04:00;;;;;;;4.93;3.75;;;15.10;99.90;;;;;;5049517;28;20198;-74
2022/10/22 06:06:31;;;;;;;5.72;4.15;;;15.10;99.90;;;;;;5061568;28;20561;-75
2022/10/22 06:09:02;;;;;;;5.43;3.72;;;15.10;99.90;;;;;;5052821;28;20206;-75
2022/10/22 06:11:30;;;;;;;4.57;4.18;;;15.10;99.90;;;;;;5048076;28;20688;-75
2022/10/22 06:13:57;;;;;;;5.22;4.07;;;15.10;99.90;;;;;;5050358;28;20551;-75
2022/10/22 06:16:30;;;;;;;8.82;4.50;;;15.10;99.90;;;;;;5050178;28;20652;-76
2022/10/22 06:18:59;;;;;;;4.47;3.92;;;15.10;99.90;;;;;;5069118;28;20328;-76
2022/10/22 06:21:27;;;;;;;8.00;4.60;;;15.10;99.90;;;;;;5050733;28;20206;-75
2022/10/22 06:23:56;;;;;;;7.55;4.15;;;15.10;99.90;;;;;;5046898;28;20206;-75
2022/10/22 06:26:23;;;;;;;7.10;4.80;;;15.10;99.90;;;;;;5055903;28;20205;-75
2022/10/22 06:28:51;;;;;;;6.82;3.95;;;15.10;99.90;;;;;;5051928;28;20215;-75
2022/10/22 06:31:18;;;;;;;6.03;4.05;;;15.10;99.90;;;;;;5051179;28;20221;-75
2022/10/22 06:33:47;;;;;;;4.90;4.28;;;15.10;99.90;;;;;;5032883;28;20277;-74
2022/10/22 06:36:18;;;;;;;4.78;4.18;;;15.10;99.90;;;;;;5052168;28;20198;-75
2022/10/22 06:38:45;;;;;;;7.68;4.07;;;15.10;99.90;;;;;;5062275;28;20195;-74
2022/10/22 06:41:15;;;;;;;10.07;4.38;;;15.10;99.90;;;;;;5059910;28;20226;-75
2022/10/22 06:43:45;;;;;;;5.65;4.75;;;15.20;99.90;;;;;;5047722;28;20206;-74
2022/10/22 06:46:15;;;;;;;8.85;4.68;;;15.10;99.90;;;;;;5047413;28;20198;-75
2022/10/22 06:48:42;;;;;;;8.88;4.88;;;15.10;99.90;;;;;;5049959;28;20210;-74
2022/10/22 06:51:12;;;;;;;6.15;4.05;;;15.20;99.90;;;;;;5065254;28;20217;-75
2022/10/22 06:53:40;;;;;;;6.40;4.57;;;15.20;99.90;;;;;;5061266;28;20223;-75
2022/10/22 06:56:09;;;;;;;5.55;4.28;;;15.20;99.90;;;;;;5046390;28;20205;-74
2022/10/22 06:58:36;;;;;;;7.13;4.63;;;15.30;99.90;;;;;;5022938;28;20237;-75
2022/10/22 07:01:05;;;;;;;5.85;3.95;;;15.30;99.90;;;;;;5054522;28;20217;-74
2022/10/22 07:03:33;;;;;;;9.40;5.15;;;15.40;99.90;;;;;;5046619;28;20205;-75
2022/10/22 07:06:02;;;;;;;5.82;4.28;;;15.50;99.90;;;;;;5032769;28;20198;-76
2022/10/22 07:08:31;;;;;;;5.07;3.53;;;15.50;99.90;;;;;;5044231;28;20206;-75
2022/10/22 07:11:06;;;;;;;7.40;3.70;;;15.60;99.90;;;;;;5041069;28;20230;-75
2022/10/22 07:13:34;;;;;;;6.38;4.28;;;15.70;99.90;;;;;;5040795;28;20680;-75
2022/10/22 07:16:01;;;;;;;6.47;4.20;;;15.60;99.90;;;;;;5045266;28;20213;-75
2022/10/22 07:18:29;;;;;;;9.68;3.90;;;15.70;99.90;;;;;;5046959;28;20198;-75
2022/10/22 07:20:56;;;;;;;5.13;3.78;;;15.70;99.90;;;;;;5044109;28;20218;-75
2022/10/22 07:23:24;;;;;;;4.70;3.33;;;15.70;99.90;;;;;;5048401;28;20205;-74
2022/10/22 07:25:53;;;;;;;4.60;3.55;;;15.70;99.90;;;;;;5049166;28;20233;-74
2022/10/22 07:28:20;;;;;;;6.70;3.75;;;15.80;99.90;;;;;;5048390;28;20204;-73
2022/10/22 07:30:48;;;;;;;7.15;3.83;;;15.70;99.90;;;;;;5044201;28;20233;-74
2022/10/22 07:33:16;;;;;;;10.15;4.47;;;15.80;99.90;;;;;;5048219;28;20222;-74
2022/10/22 07:35:44;;;;;;;6.72;3.67;;;15.90;99.90;;;;;;5050802;28;20202;-73
2022/10/22 07:38:11;;;;;;;5.15;3.53;;;15.90;99.90;;;;;;5051490;28;20199;-75
2022/10/22 07:40:38;;;;;;;4.90;3.70;;;15.90;99.90;;;;;;5050606;28;20829;-75
2022/10/22 07:43:07;;;;;;;6.65;3.53;;;16.00;99.90;;;;;;5045718;28;20191;-74
2022/10/22 07:45:35;;;;;;;8.20;3.25;;;16.00;99.90;;;;;;5055383;28;20209;-74
2022/10/22 07:48:02;;;;;;;6.97;3.35;;;16.10;99.90;;;;;;5052278;28;20195;-74
2022/10/22 07:50:29;;;;;;;6.13;3.20;;;16.10;99.90;;;;;;5052084;28;20218;-74
2022/10/22 07:52:57;;;;;;;4.63;3.53;;;16.20;99.90;;;;;;5049757;28;20230;-74
2022/10/22 07:55:24;;;;;;;6.45;3.00;;;16.20;99.90;;;;;;5056508;28;20198;-74
2022/10/22 07:57:52;;;;;;;10.68;3.72;;;16.30;99.90;;;;;;5056291;28;20190;-73
2022/10/22 08:00:21;;;;;;;8.07;3.30;;;16.40;99.90;;;;;;5037944;28;20219;-74
2022/10/22 08:02:48;;;;;;;7.00;2.50;;;16.50;99.90;;;;;;5047550;28;20209;-74
2022/10/22 08:05:16;;;;;;;6.80;3.35;;;16.40;99.90;;;;;;5059499;28;20191;-74
2022/10/22 08:07:43;;;;;;;4.90;2.80;;;16.50;99.90;;;;;;5057249;28;20208;-74
2022/10/22 08:10:12;;;;;;;4.93;3.38;;;16.50;99.90;;;;;;5048190;28;20226;-74
2022/10/22 08:12:41;;;;;;;6.07;3.78;;;16.40;99.90;;;;;;5045961;28;20210;-73
2022/10/22 08:15:09;;;;;;;5.93;2.83;;;16.40;99.90;;;;;;5050757;28;20191;-74
2022/10/22 08:17:38;;;;;;;6.40;2.70;;;16.40;99.90;;;;;;5052429;28;20194;-74
2022/10/22 08:20:06;;;;;;;9.15;3.00;;;16.30;99.90;;;;;;5046858;28;20221;-74
2022/10/22 08:22:34;;;;;;;6.53;3.15;;;16.40;99.90;;;;;;5053614;28;20194;-74
2022/10/22 08:25:01;;;;;;;6.85;3.35;;;16.50;99.90;;;;;;5054392;28;20209;-74
2022/10/22 08:27:29;;;;;;;11.30;3.40;;;16.50;99.90;;;;;;5049051;28;20564;-74
2022/10/22 08:29:56;;;;;;;7.57;3.40;;;16.60;99.90;;;;;;5046188;28;20206;-76
2022/10/22 08:32:23;;;;;;;6.40;3.00;;;16.60;99.90;;;;;;5047416;28;20195;-77
2022/10/22 08:34:52;;;;;;;4.57;2.55;;;16.60;99.90;;;;;;5048537;28;20214;-78
2022/10/22 08:37:20;;;;;;;7.45;2.72;;;16.70;99.90;;;;;;5043827;28;20572;-77
2022/10/22 08:39:47;;;;;;;10.25;3.20;;;16.70;99.90;;;;;;5043197;28;20564;-76
2022/10/22 08:42:44;;;;;;;4.78;2.80;;;16.70;99.90;;;;;;5043172;28;20199;-78
2022/10/22 08:45:14;;;;;;;8.25;2.05;;;16.70;99.90;;;;;;5047377;28;20191;-76
2022/10/22 08:48:01;;;;;;;6.15;2.53;;;16.70;99.90;;;;;;5044906;28;20654;-77
2022/10/22 08:50:37;;;;;;;3.40;2.13;;;16.70;99.90;;;;;;5048967;28;20222;-76
2022/10/22 08:53:07;;;;;;;4.95;2.00;;;16.70;99.90;;;;;;5051473;28;20201;-77
2022/10/22 08:55:37;;;;;;;6.28;2.63;;;16.70;99.90;;;;;;5042328;28;20195;-73
2022/10/22 08:58:20;;;;;;;5.18;2.08;;;16.70;99.90;;;;;;5045656;28;20762;-74
2022/10/22 09:00:55;;;;;;;5.97;2.40;;;16.70;99.90;;;;;;5049203;28;20221;-73
2022/10/22 09:03:34;;;;;;;6.75;2.25;;;16.60;99.90;;;;;;5065972;28;20202;-74
2022/10/22 09:06:10;;;;;;;8.13;2.38;;;16.60;99.90;;;;;;5051479;28;20209;-74
2022/10/22 09:09:02;;;;;;;4.10;2.30;;;16.60;99.90;;;;;;5033117;28;20671;-74
2022/10/22 09:11:32;;;;;;;4.95;1.83;;;16.60;99.90;;;;;;5074353;22;20217;-77
2022/10/22 09:14:01;;;;;;;4.75;2.40;;;16.60;99.90;;;;;;5066973;28;20214;-79
2022/10/22 09:16:38;;;;;;;4.32;2.22;;;16.50;99.90;;;;;;5066526;28;20212;-79
2022/10/22 09:19:20;;;;;;;6.25;2.25;;;16.60;99.90;;;;;;5064158;28;20198;-79
2022/10/22 09:22:01;;;;;;;6.55;2.55;;;16.60;99.90;;;;;;5068496;28;20208;-79
2022/10/22 09:24:33;;;;;;;9.85;3.17;;;16.60;99.90;;;;;;5063773;28;20197;-79
2022/10/22 09:27:11;;;;;;;7.40;3.28;;;16.60;99.90;;;;;;5068653;28;20216;-77
2022/10/22 09:29:39;;;;;;;10.77;3.72;;;16.60;99.90;;;;;;5063963;28;20213;-77
2022/10/22 09:32:07;;;;;;;5.35;2.38;;;16.60;99.90;;;;;;5062351;28;20224;-77
2022/10/22 09:34:37;;;;;;;6.10;2.20;;;16.60;99.90;;;;;;5059789;28;20217;-76
2022/10/22 09:37:09;;;;;;;8.35;3.00;;;16.60;99.90;;;;;;5060714;28;20201;-76
2022/10/22 09:39:39;;;;;;;6.55;2.47;;;16.70;99.90;;;;;;5067023;28;20208;-76
2022/10/22 09:42:08;;;;;;;5.80;2.30;;;16.70;99.90;;;;;;5058630;28;20697;-77
2022/10/22 09:44:37;;;;;;;6.57;2.00;;;16.70;99.90;;;;;;5063694;28;20201;-79
2022/10/22 09:47:06;;;;;;;5.45;1.83;;;16.70;99.90;;;;;;5068060;28;20197;-79
2022/10/22 09:49:38;;;;;;;5.18;2.60;;;16.70;99.90;;;;;;5065611;28;20213;-79
2022/10/22 09:52:27;;;;;;;7.22;2.15;;;16.70;99.90;;;;;;5068173;28;20225;-79
2022/10/22 09:54:56;;;;;;;5.68;2.25;;;16.70;99.90;;;;;;5066476;28;20220;-79
2022/10/22 09:57:26;;;;;;;5.47;2.35;;;16.70;99.90;;;;;;5069840;28;20201;-78
2022/10/22 09:59:56;;;;;;;5.65;2.35;;;16.80;99.90;;;;;;5068626;28;20196;-79
2022/10/22 10:02:27;;;;;;;5.78;2.17;;;16.70;99.90;;;;;;5067235;28;20213;-79
2022/10/22 10:05:01;;;;;;;5.60;2.10;;;16.70;99.90;;;;;;5067809;28;20205;-79
2022/10/22 10:07:33;;;;;;;6.50;2.15;;;16.70;99.90;;;;;;5064786;28;20197;-79
2022/10/22 10:10:00;;;;;;;5.07;2.30;;;16.70;99.90;;;;;;5065250;28;20197;-79
2022/10/22 10:16:23;;;;;;;4.70;2.10;;;16.70;99.90;;;;;;5064409;28;20233;-79
2022/10/22 10:19:24;;;;;;;4.78;2.35;;;16.70;99.90;;;;;;5066011;28;20204;-79
2022/10/22 10:22:25;;;;;;;4.97;2.33;;;16.70;99.90;;;;;;5059729;28;20547;-79
2022/10/22 10:25:26;;;;;;;6.63;2.15;;;16.70;99.90;;;;;;5077645;28;20204;-79
2022/10/22 10:28:01;;;;;;;3.38;1.70;;;16.70;99.90;;;;;;5062503;28;20202;-79
2022/10/22 10:30:29;;;;;;;4.18;2.28;;;16.70;99.90;;;;;;5063683;28;20578;-79
2022/10/22 10:33:38;;;;;;;8.35;2.58;;;16.70;99.90;;;;;;5071283;28;20614;-79
2022/10/22 10:36:41;;;;;;;4.78;1.83;;;16.80;99.90;;;;;;5082755;28;20196;-78
2022/10/22 10:39:13;;;;;;;2.70;1.70;;;16.70;99.90;;;;;;5071140;28;20205;-78
2022/10/22 10:41:57;;;;;;;4.13;1.98;;;16.70;99.90;;;;;;5053303;28;20222;-78
2022/10/22 10:44:47;;;;;;;3.10;1.90;;;16.70;99.90;;;;;;5070663;28;20679;-78
2022/10/22 10:47:32;;;;;;;4.60;1.70;;;16.70;99.90;;;;;;5059037;28;20199;-78
2022/10/22 10:50:18;;;;;;;5.35;1.75;;;16.70;99.90;;;;;;5062170;28;20201;-78
2022/10/22 10:52:55;;;;;;;7.78;2.10;;;16.70;99.90;;;;;;5069044;28;20208;-78
2022/10/22 10:55:29;;;;;;;4.97;1.90;;;16.70;99.90;;;;;;5070990;28;20741;-78
2022/10/22 10:58:06;;;;;;;5.13;1.90;;;16.70;99.90;;;;;;5070653;28;20204;-78
2022/10/22 11:00:40;;;;;;;5.15;1.88;;;16.80;99.90;;;;;;5061507;28;20610;-78
2022/10/22 11:03:36;;;;;;;7.65;2.13;;;16.90;99.90;;;;;;5065475;28;20196;-79
2022/10/22 11:06:09;;;;;;;6.18;2.28;;;16.90;99.90;;;;;;5073561;28;20209;-78
2022/10/22 11:08:40;;;;;;;3.75;2.17;;;16.90;99.90;;;;;;5062029;28;20204;-78
2022/10/22 11:11:15;;;;;;;5.50;1.80;;;17.00;99.90;;;;;;5069833;28;20233;-78
2022/10/22 11:13:49;;;;;;;7.32;2.10;;;17.10;99.90;;;;;;5069053;28;20197;-78
2022/10/22 11:16:28;;;;;;;6.85;1.90;;;17.20;99.90;;;;;;5073651;28;20224;-78
2022/10/22 11:19:42;;;;;;;;;;;;;;;;;;;;;
2022/10/22 11:32:34;;;;;;;5.25;1.70;;;17.20;99.90;;;;;;5006731;28;20286;-79
2022/10/22 11:35:04;;;;;;;4.47;2.15;;;17.20;99.90;;;;;;5011245;28;20204;-79
2022/10/22 11:37:37;;;;;;;6.55;1.75;;;17.20;99.90;;;;;;4992315;28;20211;-78
2022/10/22 11:40:11;;;;;;;5.10;1.60;;;17.10;99.90;;;;;;5006908;28;20192;-78
2022/10/22 11:42:47;;;;;;;4.90;2.08;;;17.10;99.90;;;;;;5004560;28;20211;-78
2022/10/22 11:45:31;;;;;;;4.00;1.40;;;17.10;99.90;;;;;;5069651;28;20220;-78
2022/10/22 11:48:07;;;;;;;6.82;1.70;;;17.10;99.90;;;;;;5081301;28;20209;-78
2022/10/22 11:50:51;;;;;;;4.55;1.80;;;17.20;99.90;;;;;;5062610;28;20225;-78
2022/10/22 11:53:26;;;;;;;7.28;1.75;;;17.20;99.90;;;;;;5062198;28;20194;-78
2022/10/22 12:07:57;;;;;;;5.30;1.60;;;17.30;99.90;;;;;;5068010;28;20264;-76
2022/10/22 12:11:17;;;;;;;4.45;1.40;;;17.40;99.90;;;;;;5071391;28;20213;-76
2022/10/22 12:18:01;;;;;;;2.53;1.15;;;17.50;99.90;;;;;;5031991;28;20193;-76
2022/10/22 12:27:45;;;;;;;3.75;1.17;;;17.40;99.90;;;;;;4991918;28;20544;-76
2022/10/22 12:30:36;;;;;;;4.47;0.98;;;17.30;99.90;;;;;;4989436;28;20582;-76
2022/10/22 12:34:14;;;;;;;4.30;1.23;;;17.20;99.90;;;;;;5071694;28;20260;-78
2022/10/22 12:37:15;;;;;;;4.90;1.23;;;17.20;99.90;;;;;;5032845;28;20201;-78
2022/10/22 12:40:28;;;;;;;1.95;0.85;;;17.10;99.90;;;;;;5065974;28;20197;-78
2022/10/22 12:43:01;;;;;;;3.58;1.15;;;17.10;99.90;;;;;;5071613;28;20193;-78
2022/10/22 12:53:17;;;;;;;4.32;1.10;;;17.20;99.90;;;;;;5086168;28;20202;-77
2022/10/22 12:56:35;;;;;;;2.53;1.10;;;17.20;99.90;;;;;;5069417;28;20240;-77
2022/10/22 13:00:04;;;;;;;2.75;1.27;;;17.20;99.90;;;;;;5065724;28;20208;-77
2022/10/22 13:03:12;;;;;;;2.85;0.93;;;17.20;99.90;;;;;;5037318;28;20190;-77
2022/10/22 13:10:03;;;;;;;4.68;1.45;;;17.20;99.90;;;;;;5032874;28;20210;-77
2022/10/22 13:12:48;;;;;;;5.38;1.48;;;17.40;99.90;;;;;;5058288;28;20197;-77
2022/10/22 13:15:32;;;;;;;3.58;1.25;;;17.30;99.90;;;;;;5074668;28;20236;-77
2022/10/22 13:18:03;;;;;;;4.80;1.13;;;17.30;99.90;;;;;;5070766;28;20197;-77
2022/10/22 13:20:30;;;;;;;3.53;1.27;;;17.20;99.90;;;;;;5067215;28;20687;-77
2022/10/22 13:22:59;;;;;;;2.83;1.58;;;17.20;99.90;;;;;;5062678;28;20213;-77
2022/10/22 13:25:29;;;;;;;3.63;1.08;;;17.20;99.90;;;;;;5070718;28;20197;-77
2022/10/22 13:28:12;;;;;;;6.50;1.52;;;17.20;99.90;;;;;;5070677;28;20563;-77
2022/10/22 13:30:52;;;;;;;4.43;1.30;;;17.10;99.90;;;;;;5061253;28;20232;-77
2022/10/22 13:33:25;;;;;;;4.85;1.48;;;17.10;99.90;;;;;;5068586;28;20777;-77
2022/10/22 13:35:54;;;;;;;3.72;1.98;;;17.10;99.90;;;;;;5068913;28;20209;-77
2022/10/22 13:38:23;;;;;;;5.22;1.63;;;17.10;99.90;;;;;;5063055;28;20200;-77
2022/10/22 13:40:51;;;;;;;3.55;1.35;;;17.10;99.90;;;;;;5055801;28;20683;-77
2022/10/22 13:43:19;;;;;;;5.45;1.85;;;17.10;99.90;;;;;;5070158;28;20228;-77
2022/10/22 13:45:54;;;;;;;4.43;1.88;;;17.10;99.90;;;;;;5069654;28;20205;-77
2022/10/22 13:48:24;;;;;;;4.80;1.48;;;17.10;99.90;;;;;;5064239;28;20190;-77
2022/10/22 13:50:56;;;;;;;4.28;1.38;;;17.00;99.90;;;;;;5064595;28;20230;-77
2022/10/22 13:53:26;;;;;;;2.83;1.17;;;17.10;99.90;;;;;;5059645;28;20186;-77
2022/10/22 13:55:53;;;;;;;3.80;1.40;;;17.10;99.90;;;;;;5068419;28;20209;-77
2022/10/22 13:58:23;;;;;;;3.88;1.58;;;17.10;99.90;;;;;;5068441;28;20190;-77
2022/10/22 14:00:55;;;;;;;3.60;1.45;;;17.10;99.90;;;;;;5065352;28;20303;-77
2022/10/22 14:03:27;;;;;;;3.08;1.23;;;17.10;99.90;;;;;;5069384;28;20287;-77
2022/10/22 14:05:54;;;;;;;4.60;1.40;;;17.10;99.90;;;;;;5072167;28;20185;-77